Time;durP1;ratioP1;P1;durP2;ratioP2;P2;SDS_P1;SDS_P2;PMS_P1;PMS_P2;Temp;Humidity;BMP_temperature;BMP_pressure;BME280_temperature;BME280_humidity;BME280_pressure;Samples;Min_cycle;Max_cycle;Signal;HPM_P1;HPM_P2
2023/12/06 00:00:36;;;;;;;7.45;6.75;;;0.70;99.90;;;;;;5031376;28;20052;-65
2023/12/06 00:03:03;;;;;;;6.78;6.18;;;0.70;99.90;;;;;;5032180;28;20485;-65
2023/12/06 00:05:29;;;;;;;7.95;7.25;;;0.70;99.90;;;;;;5032847;28;20120;-64
2023/12/06 00:07:55;;;;;;;7.55;6.95;;;0.70;99.90;;;;;;5032721;28;20048;-64
2023/12/06 00:10:21;;;;;;;8.18;7.53;;;0.70;99.90;;;;;;5032621;28;20049;-64
2023/12/06 00:12:46;;;;;;;7.88;7.22;;;0.70;99.90;;;;;;5032466;28;20033;-64
2023/12/06 00:15:12;;;;;;;7.88;7.18;;;0.70;99.90;;;;;;5032695;28;20394;-64
2023/12/06 00:17:38;;;;;;;7.35;6.75;;;0.70;99.90;;;;;;5032653;28;20473;-64
2023/12/06 00:20:05;;;;;;;7.50;6.90;;;0.70;99.90;;;;;;5030872;28;20512;-64
2023/12/06 00:22:30;;;;;;;7.47;6.88;;;0.70;99.90;;;;;;5032550;28;20033;-64
2023/12/06 00:24:56;;;;;;;7.40;6.80;;;0.70;99.90;;;;;;5032429;28;20049;-64
2023/12/06 00:27:22;;;;;;;7.10;6.50;;;0.70;99.90;;;;;;5032207;28;20515;-64
2023/12/06 00:29:47;;;;;;;7.32;6.72;;;0.70;99.90;;;;;;5032468;28;20037;-64
2023/12/06 00:32:13;;;;;;;7.38;6.78;;;0.70;99.90;;;;;;5032379;28;20099;-64
2023/12/06 00:34:39;;;;;;;7.68;7.05;;;1.10;99.90;;;;;;5031067;28;20056;-64
2023/12/06 00:37:04;;;;;;;6.68;6.18;;;0.70;99.90;;;;;;5031864;28;20636;-64
2023/12/06 00:39:30;;;;;;;7.63;6.93;;;0.70;99.90;;;;;;5032205;28;20559;-64
2023/12/06 00:41:56;;;;;;;7.63;7.00;;;0.70;99.90;;;;;;5032215;28;20033;-64
2023/12/06 00:44:21;;;;;;;7.32;6.72;;;0.60;99.90;;;;;;5032273;28;20057;-65
2023/12/06 00:46:47;;;;;;;7.43;6.82;;;0.80;99.90;;;;;;5032214;28;20034;-64
2023/12/06 00:49:13;;;;;;;7.63;7.03;;;0.80;99.90;;;;;;5032223;28;20042;-64
2023/12/06 00:51:39;;;;;;;7.95;7.28;;;0.80;99.90;;;;;;5032229;28;20076;-65
2023/12/06 00:54:05;;;;;;;7.53;6.93;;;0.80;99.90;;;;;;5032037;28;20045;-64
2023/12/06 00:56:31;;;;;;;8.05;7.35;;;0.80;99.90;;;;;;5031816;28;20110;-64
2023/12/06 00:58:56;;;;;;;7.95;7.25;;;0.70;99.90;;;;;;5032036;28;20048;-64
2023/12/06 01:01:22;;;;;;;7.03;6.45;;;0.80;99.90;;;;;;5032089;28;20113;-65
2023/12/06 01:03:48;;;;;;;7.25;6.65;;;0.80;99.90;;;;;;5031776;28;20045;-64
2023/12/06 01:06:13;;;;;;;6.55;5.95;;;0.80;99.90;;;;;;5031988;28;20029;-65
2023/12/06 01:08:39;;;;;;;7.70;7.05;;;0.80;99.90;;;;;;5032055;28;20514;-65
2023/12/06 01:11:06;;;;;;;7.90;7.20;;;0.80;99.90;;;;;;5032031;28;20490;-64
2023/12/06 01:13:31;;;;;;;7.25;6.65;;;0.80;99.90;;;;;;5032059;28;20054;-65
2023/12/06 01:15:57;;;;;;;8.20;7.60;;;0.90;99.90;;;;;;5035608;28;20374;-65
2023/12/06 01:18:23;;;;;;;7.75;7.05;;;0.90;99.90;;;;;;5035818;28;20059;-64
2023/12/06 01:20:48;;;;;;;7.22;6.63;;;1.40;99.90;;;;;;5035915;28;20544;-65
2023/12/06 01:23:14;;;;;;;7.80;7.10;;;0.80;99.90;;;;;;5035698;28;20087;-64
2023/12/06 01:25:39;;;;;;;7.82;7.15;;;1.30;99.90;;;;;;5035505;28;20045;-64
2023/12/06 01:28:05;;;;;;;8.10;7.40;;;0.80;99.90;;;;;;5034101;28;20041;-66
2023/12/06 01:30:31;;;;;;;7.25;6.65;;;0.90;99.90;;;;;;5035594;28;20045;-64
2023/12/06 01:32:56;;;;;;;7.07;6.47;;;0.90;99.90;;;;;;5035363;28;20389;-64
2023/12/06 01:35:22;;;;;;;7.20;6.50;;;0.90;99.90;;;;;;5034250;28;20073;-64
2023/12/06 01:37:48;;;;;;;7.88;7.25;;;1.00;99.90;;;;;;5035273;28;20056;-64
2023/12/06 01:40:13;;;;;;;7.38;6.78;;;0.80;99.90;;;;;;5035155;28;20033;-64
2023/12/06 01:42:39;;;;;;;7.78;7.05;;;0.90;99.90;;;;;;5035515;28;20075;-64
2023/12/06 01:45:05;;;;;;;7.65;7.05;;;0.90;99.90;;;;;;5035402;28;20045;-64
2023/12/06 01:47:33;;;;;;;7.22;6.63;;;0.90;99.90;;;;;;5035368;28;20525;-64
2023/12/06 01:50:04;;;;;;;8.07;7.38;;;0.90;99.90;;;;;;5035340;28;20041;-65
2023/12/06 01:52:31;;;;;;;7.18;6.57;;;0.90;99.90;;;;;;5035029;28;20049;-64
2023/12/06 01:54:58;;;;;;;7.10;6.50;;;0.90;99.90;;;;;;5035269;28;20050;-64
2023/12/06 01:57:26;;;;;;;7.25;6.65;;;0.60;99.90;;;;;;5035225;28;20068;-64
2023/12/06 01:59:53;;;;;;;7.53;6.93;;;0.60;99.90;;;;;;5035183;28;20041;-64
2023/12/06 02:02:19;;;;;;;7.10;6.50;;;0.90;99.90;;;;;;5033810;28;20045;-64
2023/12/06 02:04:45;;;;;;;7.28;6.68;;;0.90;99.90;;;;;;5035107;28;20037;-64
2023/12/06 02:07:12;;;;;;;7.55;6.95;;;0.90;99.90;;;;;;5034745;28;20037;-65
2023/12/06 02:09:37;;;;;;;8.13;7.40;;;0.90;99.90;;;;;;5035090;28;20401;-64
2023/12/06 02:12:03;;;;;;;7.78;7.07;;;0.90;99.90;;;;;;5034906;28;20041;-65
2023/12/06 02:14:34;;;;;;;8.70;8.00;;;0.90;99.90;;;;;;5034579;28;20037;-65
2023/12/06 02:17:02;;;;;;;8.05;7.35;;;0.60;99.90;;;;;;5033625;28;20132;-64
2023/12/06 02:19:28;;;;;;;7.40;6.80;;;0.80;99.90;;;;;;5034548;28;20045;-64
2023/12/06 02:21:55;;;;;;;8.07;7.38;;;0.90;99.90;;;;;;5034778;28;20045;-64
2023/12/06 02:24:25;;;;;;;7.30;6.70;;;0.90;99.90;;;;;;5034780;28;20064;-64
2023/12/06 02:26:52;;;;;;;7.88;7.18;;;0.90;99.90;;;;;;5033678;28;20140;-65
2023/12/06 02:29:18;;;;;;;7.10;6.50;;;1.30;99.90;;;;;;5034414;28;20061;-64
2023/12/06 02:31:44;;;;;;;8.15;7.47;;;0.90;99.90;;;;;;5034268;28;20122;-64
2023/12/06 02:34:14;;;;;;;7.97;7.30;;;0.90;99.90;;;;;;5034265;28;20081;-64
2023/12/06 02:36:42;;;;;;;8.10;7.40;;;0.90;99.90;;;;;;5034196;28;20072;-65
2023/12/06 02:39:09;;;;;;;8.02;7.32;;;0.80;99.90;;;;;;5034197;28;20176;-64
2023/12/06 02:41:35;;;;;;;7.97;7.35;;;0.70;99.90;;;;;;5034428;28;20050;-65
2023/12/06 02:44:01;;;;;;;8.18;7.47;;;0.90;99.90;;;;;;5034365;28;20486;-64
2023/12/06 02:46:27;;;;;;;8.35;7.65;;;0.90;99.90;;;;;;5034277;28;20037;-64
2023/12/06 02:48:52;;;;;;;8.48;7.78;;;0.90;99.90;;;;;;5034297;28;20042;-64
2023/12/06 02:51:22;;;;;;;8.65;7.95;;;0.90;99.90;;;;;;5034240;28;20478;-64
2023/12/06 02:53:51;;;;;;;8.38;7.63;;;0.90;99.90;;;;;;5033969;28;20080;-64
2023/12/06 02:56:16;;;;;;;8.77;8.07;;;1.00;99.90;;;;;;5034156;28;20042;-64
2023/12/06 02:58:42;;;;;;;9.15;8.35;;;0.90;99.90;;;;;;5032712;28;20560;-64
2023/12/06 03:01:08;;;;;;;8.18;7.50;;;0.80;99.90;;;;;;5034096;28;20038;-64
2023/12/06 03:03:34;;;;;;;8.38;7.68;;;0.70;99.90;;;;;;5034015;28;20481;-64
2023/12/06 03:05:59;;;;;;;7.72;7.03;;;0.90;99.90;;;;;;5033657;28;20040;-64
2023/12/06 03:08:26;;;;;;;8.30;7.60;;;0.90;99.90;;;;;;5033870;28;20030;-64
2023/12/06 03:10:51;;;;;;;7.82;7.22;;;0.90;99.90;;;;;;5033689;28;20124;-64
2023/12/06 03:13:17;;;;;;;8.55;7.75;;;1.00;99.90;;;;;;5033797;28;20220;-64
2023/12/06 03:15:43;;;;;;;8.75;8.05;;;0.90;99.90;;;;;;5033740;28;20049;-64
2023/12/06 03:18:09;;;;;;;8.15;7.47;;;1.00;99.90;;;;;;5033785;28;20056;-63
2023/12/06 03:20:34;;;;;;;7.47;6.85;;;0.90;99.90;;;;;;5033524;28;20050;-64
2023/12/06 03:23:00;;;;;;;7.72;7.07;;;0.90;99.90;;;;;;5033655;28;20435;-64
2023/12/06 03:25:26;;;;;;;7.15;6.55;;;0.80;99.90;;;;;;5033525;28;20034;-64
2023/12/06 03:27:52;;;;;;;8.00;7.30;;;1.00;99.90;;;;;;5033557;28;20041;-64
2023/12/06 03:30:17;;;;;;;7.32;6.72;;;0.80;99.90;;;;;;5033405;28;20511;-64
2023/12/06 03:32:43;;;;;;;8.02;7.32;;;0.80;99.90;;;;;;5033446;28;20125;-64
2023/12/06 03:35:09;;;;;;;6.80;6.20;;;0.80;99.90;;;;;;5033008;28;20446;-64
2023/12/06 03:37:34;;;;;;;6.93;6.32;;;1.00;99.90;;;;;;5032524;28;20128;-64
2023/12/06 03:40:00;;;;;;;7.40;6.80;;;1.00;99.90;;;;;;5033193;28;20034;-64
2023/12/06 03:42:26;;;;;;;6.63;6.03;;;0.90;99.90;;;;;;5033249;28;20112;-64
2023/12/06 03:44:52;;;;;;;6.50;5.90;;;1.30;99.90;;;;;;5032857;28;20037;-64
2023/12/06 03:47:17;;;;;;;6.13;5.63;;;1.20;99.90;;;;;;5032956;28;20037;-64
2023/12/06 03:49:43;;;;;;;6.05;5.55;;;1.20;99.90;;;;;;5033093;28;20507;-64
2023/12/06 03:52:09;;;;;;;5.40;5.00;;;1.10;99.90;;;;;;5033095;28;20041;-64
2023/12/06 03:54:35;;;;;;;5.82;5.32;;;1.10;99.90;;;;;;5033043;28;20496;-64
2023/12/06 03:57:01;;;;;;;5.68;5.15;;;1.40;99.90;;;;;;5032983;28;20064;-64
2023/12/06 03:59:27;;;;;;;5.90;5.40;;;1.10;99.90;;;;;;5032567;28;20045;-64
2023/12/06 04:01:52;;;;;;;5.22;4.72;;;1.40;99.90;;;;;;5032918;28;20083;-64
2023/12/06 04:04:18;;;;;;;5.85;5.35;;;1.60;99.90;;;;;;5032838;28;20037;-64
2023/12/06 04:06:44;;;;;;;5.47;5.07;;;1.50;99.90;;;;;;5032829;28;20030;-64
2023/12/06 04:09:13;;;;;;;4.88;4.47;;;1.30;99.90;;;;;;5032775;28;20045;-64
2023/12/06 04:11:38;;;;;;;4.82;4.43;;;1.20;99.90;;;;;;5031496;28;20049;-64
2023/12/06 04:14:04;;;;;;;4.93;4.43;;;1.80;99.90;;;;;;5032963;28;20111;-64
2023/12/06 04:16:30;;;;;;;4.90;4.50;;;1.20;99.90;;;;;;5032375;28;20048;-64
2023/12/06 04:18:56;;;;;;;5.53;4.30;;;1.10;99.90;;;;;;5032579;28;20038;-64
2023/12/06 04:21:22;;;;;;;4.80;4.40;;;1.20;99.90;;;;;;5031200;28;20128;-64
2023/12/06 04:23:48;;;;;;;3.85;3.55;;;1.30;99.90;;;;;;5032613;28;20074;-64
2023/12/06 04:26:14;;;;;;;4.50;4.10;;;1.30;99.90;;;;;;5032520;28;20045;-65
2023/12/06 04:28:39;;;;;;;4.57;4.18;;;1.20;99.90;;;;;;5032152;28;20084;-64
2023/12/06 04:31:05;;;;;;;5.40;5.00;;;1.10;99.90;;;;;;5032427;28;20069;-64
2023/12/06 04:33:31;;;;;;;5.00;4.60;;;1.30;99.90;;;;;;5032506;28;20467;-64
2023/12/06 04:35:57;;;;;;;4.95;4.55;;;1.10;99.90;;;;;;5032135;28;20124;-64
2023/12/06 04:38:23;;;;;;;5.10;4.60;;;1.40;99.90;;;;;;5032043;28;20037;-64
2023/12/06 04:40:48;;;;;;;4.65;4.25;;;1.10;99.90;;;;;;5032275;28;20040;-64
2023/12/06 04:43:16;;;;;;;4.93;4.53;;;1.10;99.90;;;;;;5032270;28;20408;-64
2023/12/06 04:45:41;;;;;;;4.75;4.35;;;1.20;99.90;;;;;;5032289;28;20033;-64
2023/12/06 04:48:07;;;;;;;4.70;4.30;;;1.10;99.90;;;;;;5032182;28;20038;-65
2023/12/06 04:50:33;;;;;;;4.60;4.20;;;1.20;99.90;;;;;;5031821;28;20531;-64
2023/12/06 04:52:58;;;;;;;4.70;4.30;;;1.20;99.90;;;;;;5032294;28;20048;-64
2023/12/06 04:55:24;;;;;;;6.13;4.03;;;;;;;;;;5032179;28;20576;-64
2023/12/06 04:57:50;;;;;;;4.40;4.00;;;1.10;99.90;;;;;;5030615;28;20128;-64
2023/12/06 05:00:17;;;;;;;4.10;3.80;;;1.10;99.90;;;;;;5032290;28;20071;-64
2023/12/06 05:02:43;;;;;;;6.35;4.32;;;1.10;99.90;;;;;;5032031;28;20041;-64
2023/12/06 05:05:09;;;;;;;4.60;4.20;;;1.10;99.90;;;;;;5032106;28;20037;-64
2023/12/06 05:07:35;;;;;;;4.50;4.10;;;1.10;99.90;;;;;;5032003;28;20049;-64
2023/12/06 05:10:00;;;;;;;4.35;3.95;;;1.10;99.90;;;;;;5031769;28;20041;-64
2023/12/06 05:12:26;;;;;;;4.55;4.18;;;1.10;99.90;;;;;;5031663;28;20041;-64
2023/12/06 05:14:51;;;;;;;4.80;4.40;;;1.10;99.90;;;;;;5031963;28;20044;-64
2023/12/06 05:17:17;;;;;;;4.20;3.88;;;1.10;99.90;;;;;;5031712;28;20037;-64
2023/12/06 05:19:43;;;;;;;4.68;4.20;;;1.10;99.90;;;;;;5031802;28;20071;-64
2023/12/06 05:22:08;;;;;;;4.55;4.10;;;1.10;99.90;;;;;;5030752;28;20366;-64
2023/12/06 05:24:34;;;;;;;4.20;3.70;;;1.10;99.90;;;;;;5031892;28;20037;-64
2023/12/06 05:26:59;;;;;;;4.30;3.90;;;1.40;99.90;;;;;;5030264;28;20038;-64
2023/12/06 05:29:25;;;;;;;4.35;3.97;;;1.10;99.90;;;;;;5031800;28;20041;-65
2023/12/06 05:31:51;;;;;;;4.80;4.40;;;1.10;99.90;;;;;;5030417;28;20660;-64
2023/12/06 05:34:17;;;;;;;4.40;4.00;;;1.10;99.90;;;;;;5030200;28;20053;-64
2023/12/06 05:36:43;;;;;;;4.78;4.25;;;1.10;99.90;;;;;;5031411;28;20421;-64
2023/12/06 05:39:10;;;;;;;4.18;3.88;;;1.10;99.90;;;;;;5030043;28;20053;-64
2023/12/06 05:41:36;;;;;;;4.57;4.18;;;1.10;99.90;;;;;;5031792;28;20034;-63
2023/12/06 05:44:05;;;;;;;4.80;4.40;;;1.10;99.90;;;;;;5031716;28;20065;-64
2023/12/06 05:46:31;;;;;;;3.97;3.67;;;1.10;99.90;;;;;;5031753;28;20067;-64
2023/12/06 05:48:56;;;;;;;4.75;4.35;;;1.10;99.90;;;;;;5031573;28;20041;-64
2023/12/06 05:51:22;;;;;;;4.90;4.50;;;1.10;99.90;;;;;;5031444;28;20482;-64
2023/12/06 05:53:49;;;;;;;4.20;3.80;;;1.10;99.90;;;;;;5031648;28;20069;-65
2023/12/06 05:56:14;;;;;;;3.78;3.47;;;1.10;99.90;;;;;;5031549;28;20041;-63
2023/12/06 05:58:41;;;;;;;4.78;4.28;;;1.10;99.90;;;;;;5031468;28;20044;-63
2023/12/06 06:01:07;;;;;;;4.05;3.75;;;1.70;99.90;;;;;;5032171;28;20036;-64
2023/12/06 06:03:33;;;;;;;4.03;3.70;;;1.20;99.90;;;;;;5034915;28;20033;-64
2023/12/06 06:06:05;;;;;;;3.72;3.42;;;1.20;99.90;;;;;;5035449;28;20116;-63
2023/12/06 06:08:31;;;;;;;4.68;4.28;;;1.20;99.90;;;;;;5035004;28;20044;-63
2023/12/06 06:10:57;;;;;;;4.25;3.95;;;1.20;99.90;;;;;;5034804;28;20440;-67
2023/12/06 06:13:22;;;;;;;3.85;3.55;;;1.20;99.90;;;;;;5034881;28;20086;-66
2023/12/06 06:15:48;;;;;;;3.88;3.58;;;1.20;99.90;;;;;;5034916;28;20072;-65
2023/12/06 06:18:14;;;;;;;4.03;3.72;;;1.20;99.90;;;;;;5034805;28;20509;-67
2023/12/06 06:20:39;;;;;;;4.07;3.67;;;1.20;99.90;;;;;;5033258;28;20049;-65
2023/12/06 06:23:05;;;;;;;4.28;3.88;;;1.20;99.90;;;;;;5034742;28;20033;-66
2023/12/06 06:25:31;;;;;;;4.50;4.10;;;1.50;99.90;;;;;;5034772;28;20034;-65
2023/12/06 06:27:56;;;;;;;3.90;3.60;;;2.20;99.90;;;;;;5034337;28;20033;-65
2023/12/06 06:30:22;;;;;;;4.20;3.90;;;1.40;99.90;;;;;;5034690;28;20051;-65
2023/12/06 06:32:48;;;;;;;4.05;3.65;;;1.40;99.90;;;;;;5034802;28;20478;-67
2023/12/06 06:35:13;;;;;;;4.13;3.63;;;1.50;99.90;;;;;;5034367;28;20132;-64
2023/12/06 06:37:39;;;;;;;3.70;3.40;;;1.60;99.90;;;;;;5034597;28;20051;-64
2023/12/06 06:40:07;;;;;;;3.88;3.58;;;1.90;99.90;;;;;;5034419;28;20136;-68
2023/12/06 06:42:33;;;;;;;4.13;3.83;;;1.30;99.90;;;;;;5034316;28;20041;-65
2023/12/06 06:44:58;;;;;;;3.88;3.58;;;1.50;99.90;;;;;;5034379;28;20037;-65
2023/12/06 06:47:27;;;;;;;3.85;3.55;;;1.60;99.90;;;;;;5033982;28;20045;-66
2023/12/06 06:49:53;;;;;;;4.15;3.85;;;1.20;99.90;;;;;;5034227;28;20367;-65
2023/12/06 06:52:20;;;;;;;3.83;3.53;;;1.40;99.90;;;;;;5034647;28;20092;-64
2023/12/06 06:54:45;;;;;;;3.60;3.30;;;1.30;99.90;;;;;;5033925;28;20045;-64
2023/12/06 06:57:11;;;;;;;3.72;3.42;;;1.20;99.90;;;;;;5034111;28;20041;-68
2023/12/06 06:59:38;;;;;;;3.70;3.40;;;1.30;99.90;;;;;;5034027;28;20077;-65
2023/12/06 07:02:04;;;;;;;3.45;3.17;;;1.30;99.90;;;;;;5032618;28;20048;-65
2023/12/06 07:04:31;;;;;;;4.10;3.80;;;1.40;99.90;;;;;;5033985;28;20045;-64
2023/12/06 07:06:57;;;;;;;3.97;3.67;;;1.40;99.90;;;;;;5032637;28;20437;-64
2023/12/06 07:09:23;;;;;;;3.42;3.13;;;1.40;99.90;;;;;;5033958;28;20049;-64
2023/12/06 07:11:49;;;;;;;4.03;3.63;;;1.40;99.90;;;;;;5033739;28;20091;-64
2023/12/06 07:14:14;;;;;;;3.85;3.55;;;1.40;99.90;;;;;;5033593;28;20443;-64
2023/12/06 07:16:40;;;;;;;4.20;3.80;;;1.40;99.90;;;;;;5033364;28;20075;-64
2023/12/06 07:19:06;;;;;;;3.95;3.65;;;1.40;99.90;;;;;;5033424;28;20041;-66
2023/12/06 07:21:31;;;;;;;3.75;3.45;;;1.50;99.90;;;;;;5033602;28;20045;-65
2023/12/06 07:23:57;;;;;;;3.53;3.22;;;1.40;99.90;;;;;;5033377;28;20044;-65
2023/12/06 07:26:22;;;;;;;3.50;3.10;;;1.40;99.90;;;;;;5033240;28;20072;-67
2023/12/06 07:28:48;;;;;;;4.22;3.40;;;1.50;99.90;;;;;;5033394;28;20120;-65
2023/12/06 07:31:14;;;;;;;3.65;3.35;;;1.50;99.90;;;;;;5033432;28;20481;-64
2023/12/06 07:33:39;;;;;;;3.83;3.53;;;1.50;99.90;;;;;;5033494;28;20077;-64
2023/12/06 07:36:06;;;;;;;3.83;3.53;;;1.50;99.90;;;;;;5032968;28;20089;-64
2023/12/06 07:38:31;;;;;;;3.20;2.90;;;1.60;99.90;;;;;;5032085;28;20092;-64
2023/12/06 07:40:57;;;;;;;3.60;3.30;;;1.90;99.90;;;;;;5033284;28;20049;-64
2023/12/06 07:43:25;;;;;;;3.88;3.50;;;1.60;99.90;;;;;;5033246;28;20060;-64
2023/12/06 07:45:51;;;;;;;3.40;3.10;;;1.60;99.90;;;;;;5031995;28;20037;-64
2023/12/06 07:48:17;;;;;;;3.90;3.60;;;1.60;99.90;;;;;;5033181;28;20147;-66
2023/12/06 07:50:43;;;;;;;3.60;3.30;;;1.60;99.90;;;;;;5033195;28;20048;-64
2023/12/06 07:53:09;;;;;;;3.33;3.03;;;1.60;99.90;;;;;;5033328;28;20409;-64
2023/12/06 07:55:35;;;;;;;3.50;3.20;;;1.60;99.90;;;;;;5032998;28;20124;-64
2023/12/06 07:58:01;;;;;;;3.47;3.17;;;1.60;99.90;;;;;;5032935;28;20041;-64
2023/12/06 08:00:27;;;;;;;3.75;3.45;;;1.60;99.90;;;;;;5032929;28;20512;-64
2023/12/06 08:02:52;;;;;;;3.33;3.00;;;1.60;99.90;;;;;;5032933;28;20045;-64
2023/12/06 08:05:19;;;;;;;3.17;2.95;;;1.60;99.90;;;;;;5032863;28;20037;-64
2023/12/06 08:07:45;;;;;;;4.03;3.72;;;1.60;99.90;;;;;;5032820;28;20056;-65
2023/12/06 08:10:13;;;;;;;4.10;3.70;;;1.70;99.90;;;;;;5032739;28;20037;-64
2023/12/06 08:12:39;;;;;;;3.53;3.22;;;1.70;99.90;;;;;;5032819;28;20038;-65
2023/12/06 08:15:06;;;;;;;4.15;3.75;;;1.70;99.90;;;;;;5032726;28;20049;-65
2023/12/06 08:17:32;;;;;;;3.70;3.40;;;1.70;99.90;;;;;;5032405;28;20045;-65
2023/12/06 08:19:57;;;;;;;3.58;3.28;;;1.60;99.90;;;;;;5032597;28;20103;-65
2023/12/06 08:22:23;;;;;;;3.80;3.40;;;1.70;99.90;;;;;;5032659;28;20433;-64
2023/12/06 08:24:50;;;;;;;4.00;3.70;;;1.70;99.90;;;;;;5031707;28;20038;-64
2023/12/06 08:27:17;;;;;;;3.90;3.60;;;1.70;99.90;;;;;;5032323;28;20441;-64
2023/12/06 08:29:42;;;;;;;3.58;3.28;;;1.70;99.90;;;;;;5032487;28;20389;-64
2023/12/06 08:32:08;;;;;;;3.22;2.92;;;1.70;99.90;;;;;;5032243;28;20033;-64
2023/12/06 08:34:34;;;;;;;3.67;3.15;;;2.20;99.90;;;;;;5032039;28;20041;-63
2023/12/06 08:36:59;;;;;;;3.58;3.28;;;1.70;99.90;;;;;;5032033;28;20085;-63
2023/12/06 08:39:25;;;;;;;3.40;3.10;;;1.70;99.90;;;;;;5031986;28;20114;-63
2023/12/06 08:41:50;;;;;;;3.50;3.20;;;1.70;99.90;;;;;;5032405;28;20033;-64
2023/12/06 08:44:17;;;;;;;2.97;2.78;;;2.00;99.90;;;;;;5032232;28;20501;-64
2023/12/06 08:46:42;;;;;;;2.90;2.65;;;1.70;99.90;;;;;;5030697;28;20045;-64
2023/12/06 08:49:08;;;;;;;3.78;3.47;;;1.80;99.90;;;;;;5032234;28;20116;-64
2023/12/06 08:51:34;;;;;;;3.75;3.45;;;1.80;99.90;;;;;;5032170;28;20040;-64
2023/12/06 08:53:59;;;;;;;3.53;3.10;;;1.80;99.90;;;;;;5032275;28;20060;-64
2023/12/06 08:56:25;;;;;;;3.20;3.00;;;1.80;99.90;;;;;;5032070;28;20167;-64
2023/12/06 08:58:50;;;;;;;3.45;3.20;;;2.10;99.90;;;;;;5032049;28;20041;-64
2023/12/06 09:01:16;;;;;;;3.47;3.17;;;1.80;99.90;;;;;;5030456;28;20049;-64
2023/12/06 09:03:42;;;;;;;3.50;3.20;;;1.90;99.90;;;;;;5032095;28;20048;-64
2023/12/06 09:06:09;;;;;;;3.80;3.50;;;1.80;99.90;;;;;;5031790;28;20501;-64
2023/12/06 09:08:34;;;;;;;3.00;2.80;;;1.90;99.90;;;;;;5032034;28;20044;-65
2023/12/06 09:11:00;;;;;;;3.22;2.92;;;1.90;99.90;;;;;;5031994;28;20038;-64
2023/12/06 09:13:26;;;;;;;3.42;3.13;;;1.90;99.90;;;;;;5032017;28;20107;-64
2023/12/06 09:15:52;;;;;;;3.30;3.00;;;1.90;99.90;;;;;;5031714;28;20120;-64
2023/12/06 09:18:18;;;;;;;5.32;3.33;;;1.90;99.90;;;;;;5031931;28;20033;-64
2023/12/06 09:20:43;;;;;;;3.20;2.90;;;2.00;99.90;;;;;;5031847;28;20600;-64
2023/12/06 09:23:09;;;;;;;3.63;3.30;;;2.00;99.90;;;;;;5032047;28;20029;-64
2023/12/06 09:25:35;;;;;;;2.85;2.65;;;2.00;99.90;;;;;;5031805;28;20037;-64
2023/12/06 09:28:03;;;;;;;3.03;2.72;;;2.10;99.90;;;;;;5030343;28;20040;-64
2023/12/06 09:30:29;;;;;;;3.30;3.00;;;2.00;99.90;;;;;;5031594;28;20103;-64
2023/12/06 09:32:56;;;;;;;2.67;2.47;;;2.10;99.90;;;;;;5031948;28;20124;-64
2023/12/06 09:35:22;;;;;;;2.70;2.50;;;2.10;99.90;;;;;;5032564;28;20152;-64
2023/12/06 09:37:48;;;;;;;3.20;2.90;;;2.20;99.90;;;;;;5035636;28;20045;-64
2023/12/06 09:40:14;;;;;;;3.50;3.20;;;2.20;99.90;;;;;;5035520;28;20041;-64
2023/12/06 09:42:46;;;;;;;3.15;2.88;;;2.20;99.90;;;;;;5035573;28;20374;-64
2023/12/06 09:45:12;;;;;;;;;;;2.40;99.90;;;;;;5035940;28;20037;-64
2023/12/06 09:47:42;;;;;;;2.90;2.70;;;2.20;99.90;;;;;;5035469;28;19924;-64
2023/12/06 09:50:10;;;;;;;2.95;2.75;;;2.20;99.90;;;;;;5035428;28;20038;-64
2023/12/06 09:52:36;;;;;;;3.05;2.78;;;2.30;99.90;;;;;;5035131;28;20055;-64
2023/12/06 09:55:01;;;;;;;3.30;3.00;;;2.30;99.90;;;;;;5035397;28;20047;-64
2023/12/06 09:57:27;;;;;;;2.70;2.50;;;2.30;99.90;;;;;;5034076;28;20529;-64
2023/12/06 09:59:53;;;;;;;3.00;2.70;;;2.40;99.90;;;;;;5034840;28;20555;-64
2023/12/06 10:02:19;;;;;;;3.28;2.97;;;2.40;99.90;;;;;;5034913;28;20116;-64
2023/12/06 10:04:44;;;;;;;3.45;3.15;;;2.40;99.90;;;;;;5035372;28;20041;-64
2023/12/06 10:07:10;;;;;;;3.00;2.70;;;2.40;99.90;;;;;;5035154;28;20041;-64
2023/12/06 10:09:36;;;;;;;3.00;2.65;;;2.40;99.90;;;;;;5034811;28;20041;-64
2023/12/06 10:12:08;;;;;;;2.70;2.45;;;2.40;99.90;;;;;;5035024;28;20041;-64
2023/12/06 10:14:34;;;;;;;2.95;2.65;;;2.40;99.90;;;;;;5034963;28;20042;-64
2023/12/06 10:17:01;;;;;;;2.92;2.70;;;2.40;99.90;;;;;;5034627;28;20038;-64
2023/12/06 10:19:26;;;;;;;3.03;2.78;;;2.40;99.90;;;;;;5034543;28;20125;-64
2023/12/06 10:21:53;;;;;;;3.60;3.03;;;2.60;99.90;;;;;;5033517;28;20458;-64
2023/12/06 10:24:18;;;;;;;2.83;2.60;;;2.40;99.90;;;;;;5034798;28;20091;-64
2023/12/06 10:26:46;;;;;;;2.72;2.38;;;2.40;99.90;;;;;;5034691;28;20436;-64
2023/12/06 10:29:12;;;;;;;2.55;2.35;;;2.40;99.90;;;;;;5033219;28;20053;-64
2023/12/06 10:31:41;;;;;;;4.20;2.80;;;2.50;99.90;;;;;;5034608;28;20443;-64
2023/12/06 10:34:08;;;;;;;2.78;2.50;;;2.50;99.90;;;;;;5034700;28;20146;-65
2023/12/06 10:36:36;;;;;;;6.93;3.03;;;2.50;99.90;;;;;;5034213;28;20421;-65
2023/12/06 10:39:04;;;;;;;2.92;2.72;;;2.80;99.90;;;;;;5034230;28;20054;-65
2023/12/06 10:41:31;;;;;;;2.63;2.42;;;2.50;99.90;;;;;;5034533;28;20033;-65
2023/12/06 10:43:59;;;;;;;2.60;2.40;;;2.50;99.90;;;;;;5034534;28;20083;-65
2023/12/06 10:46:26;;;;;;;2.97;2.60;;;2.60;99.90;;;;;;5034197;28;20397;-65
2023/12/06 10:48:54;;;;;;;2.85;2.65;;;2.60;99.90;;;;;;5034001;28;20107;-65
2023/12/06 10:51:20;;;;;;;2.83;2.60;;;2.60;99.90;;;;;;5034329;28;20041;-65
2023/12/06 10:53:46;;;;;;;2.80;2.60;;;2.90;99.90;;;;;;5034298;28;20038;-65
2023/12/06 10:56:14;;;;;;;2.88;2.67;;;2.60;99.90;;;;;;5034146;28;20056;-65
2023/12/06 10:58:41;;;;;;;2.60;2.40;;;2.60;99.90;;;;;;5034060;28;20077;-65
2023/12/06 11:01:09;;;;;;;2.83;2.38;;;2.60;99.90;;;;;;5034019;28;20041;-65
2023/12/06 11:03:36;;;;;;;2.63;2.42;;;2.60;99.90;;;;;;5034093;28;20113;-64
2023/12/06 11:06:13;;;;;;;3.00;2.60;;;2.60;99.90;;;;;;5033686;28;20056;-64
2023/12/06 11:08:46;;;;;;;2.90;2.60;;;2.60;99.90;;;;;;5033958;28;20048;-64
2023/12/06 11:11:21;;;;;;;2.50;2.30;;;2.60;99.90;;;;;;5033926;28;20494;-64
2023/12/06 11:14:11;;;;;;;3.53;2.22;;;2.70;99.90;;;;;;5033574;28;20041;-64
2023/12/06 11:17:15;;;;;;;2.50;2.30;;;2.90;99.90;;;;;;5033529;28;20124;-64
2023/12/06 11:19:41;;;;;;;2.28;2.10;;;2.90;99.90;;;;;;5028040;28;20053;-65
2023/12/06 11:22:07;;;;;;;2.63;2.42;;;3.00;99.90;;;;;;5033386;28;20397;-69
2023/12/06 11:24:35;;;;;;;2.63;2.42;;;3.10;99.90;;;;;;5033238;28;20064;-64
2023/12/06 11:27:01;;;;;;;3.05;2.75;;;2.80;99.90;;;;;;5033210;28;20397;-64
2023/12/06 11:29:27;;;;;;;2.42;2.22;;;2.90;99.90;;;;;;5033101;28;20046;-64
2023/12/06 11:32:00;;;;;;;4.63;2.40;;;3.10;99.90;;;;;;5033099;28;20107;-66
2023/12/06 11:34:34;;;;;;;2.92;2.42;;;2.90;99.90;;;;;;5032999;28;20489;-65
2023/12/06 11:37:03;;;;;;;2.50;2.30;;;3.20;99.90;;;;;;5032686;28;20053;-65
2023/12/06 11:39:29;;;;;;;3.17;2.60;;;2.90;99.90;;;;;;5034219;28;20049;-64
2023/12/06 11:41:55;;;;;;;2.97;2.30;;;2.90;99.90;;;;;;5034214;28;20120;-65
2023/12/06 11:44:22;;;;;;;2.95;2.65;;;3.00;99.90;;;;;;5034151;28;20060;-65
2023/12/06 11:46:51;;;;;;;2.85;2.53;;;2.90;99.90;;;;;;5034199;28;20033;-64
2023/12/06 11:49:25;;;;;;;2.92;2.72;;;2.90;99.90;;;;;;5034114;28;20045;-68
2023/12/06 11:52:01;;;;;;;2.58;2.38;;;3.00;99.90;;;;;;5033098;28;20037;-64
2023/12/06 11:54:28;;;;;;;2.50;2.30;;;2.80;99.90;;;;;;5032653;28;20124;-64
2023/12/06 11:57:08;;;;;;;3.05;2.60;;;3.10;99.90;;;;;;5032746;28;20041;-64
2023/12/06 11:59:34;;;;;;;2.83;2.63;;;;;;;;;;5032705;28;20038;-64
2023/12/06 12:02:01;;;;;;;2.70;2.50;;;3.00;99.90;;;;;;5033664;28;20512;-64
2023/12/06 12:04:27;;;;;;;2.50;2.20;;;3.20;99.90;;;;;;5033762;28;20111;-64
2023/12/06 12:06:53;;;;;;;2.25;2.08;;;3.50;99.90;;;;;;5032219;28;20033;-64
2023/12/06 12:09:21;;;;;;;2.33;2.13;;;3.70;99.90;;;;;;5032606;28;20536;-64
2023/12/06 12:11:47;;;;;;;2.60;2.40;;;3.10;99.90;;;;;;5033699;28;20084;-64
2023/12/06 12:14:12;;;;;;;3.20;2.50;;;3.30;99.90;;;;;;5033762;28;20421;-64
2023/12/06 12:16:39;;;;;;;2.63;2.42;;;3.10;99.90;;;;;;5033619;28;20041;-64
2023/12/06 12:19:06;;;;;;;2.53;2.33;;;3.30;99.90;;;;;;5033504;28;20124;-64
2023/12/06 12:21:32;;;;;;;2.58;2.38;;;3.10;99.90;;;;;;5033581;28;20037;-64
2023/12/06 12:24:00;;;;;;;2.40;2.20;;;3.30;99.90;;;;;;5033243;28;20535;-64
2023/12/06 12:26:26;;;;;;;3.58;2.70;;;3.70;99.90;;;;;;5033420;28;20482;-64
2023/12/06 12:28:52;;;;;;;2.17;1.98;;;3.10;99.90;;;;;;5033163;28;20048;-64
2023/12/06 12:31:21;;;;;;;2.38;2.17;;;3.40;99.90;;;;;;5033414;28;20033;-65
2023/12/06 12:33:47;;;;;;;1.98;1.88;;;3.10;99.90;;;;;;5033351;28;20087;-65
2023/12/06 12:36:14;;;;;;;2.35;2.15;;;3.10;99.90;;;;;;5032960;28;20095;-64
2023/12/06 12:38:39;;;;;;;2.55;2.35;;;3.10;99.90;;;;;;5032020;28;20537;-64
2023/12/06 12:41:09;;;;;;;2.30;2.10;;;3.10;99.90;;;;;;5033162;28;20225;-64
2023/12/06 12:43:35;;;;;;;2.33;2.13;;;3.10;99.90;;;;;;5033184;28;20508;-64
2023/12/06 12:46:00;;;;;;;1.88;1.70;;;3.20;99.90;;;;;;5032822;28;20034;-63
2023/12/06 12:48:26;;;;;;;2.40;2.20;;;3.10;99.90;;;;;;5033100;28;20033;-64
2023/12/06 12:51:15;;;;;;;2.03;1.92;;;3.20;99.90;;;;;;5032737;28;20517;-64
2023/12/06 12:53:42;;;;;;;2.33;2.17;;;3.20;99.90;;;;;;5032982;28;20436;-64